Time;durP1;ratioP1;P1;durP2;ratioP2;P2;SDS_P1;SDS_P2;PMS_P1;PMS_P2;Temp;Humidity;BMP_temperature;BMP_pressure;BME280_temperature;BME280_humidity;BME280_pressure;Samples;Min_cycle;Max_cycle;Signal;HPM_P1;HPM_P2
2023/12/26 00:00:35;;;;;;;;;;;;;;;6.22;100.00;96265.44;5067251;28;20150;-83
2023/12/26 00:03:06;;;;;;;;;;;;;;;6.24;100.00;96266.03;5067134;28;19954;-73
2023/12/26 00:05:32;;;;;;;;;;;;;;;6.23;100.00;96259.22;5066732;28;19952;-78
2023/12/26 00:07:58;;;;;;;;;;;;;;;6.22;100.00;96250.59;5066409;28;19955;-78
2023/12/26 00:10:24;;;;;;;;;;;;;;;6.22;100.00;96261.03;5066438;28;20287;-77
2023/12/26 00:12:50;;;;;;;;;;;;;;;6.23;100.00;96252.19;5066032;28;20191;-77
2023/12/26 00:15:17;;;;;;;;;;;;;;;6.23;100.00;96254.81;5065697;28;20288;-78
2023/12/26 00:17:43;;;;;;;;;;;;;;;6.24;100.00;96248.63;5066483;28;19964;-78
2023/12/26 00:20:09;;;;;;;;;;;;;;;6.23;100.00;96247.00;5064332;28;19960;-73
2023/12/26 00:22:35;;;;;;;;;;;;;;;6.22;100.00;96242.00;5066553;28;19961;-76
2023/12/26 00:25:01;;;;;;;;;;;;;;;6.22;100.00;96235.00;5066520;28;19952;-76
2023/12/26 00:27:27;;;;;;;;;;;;;;;6.22;100.00;96231.59;5066440;28;19969;-76
2023/12/26 00:29:53;;;;;;;;;;;;;;;6.21;100.00;96230.75;5066674;28;19938;-76
2023/12/26 00:32:19;;;;;;;;;;;;;;;6.21;100.00;96235.16;5065875;28;19964;-77
2023/12/26 00:34:45;;;;;;;;;;;;;;;6.17;100.00;96233.97;5066468;28;19996;-77
2023/12/26 00:37:11;;;;;;;;;;;;;;;6.15;100.00;96231.53;5065945;28;19998;-82
2023/12/26 00:39:37;;;;;;;;;;;;;;;6.14;100.00;96221.34;5066063;28;20099;-82
2023/12/26 00:42:03;;;;;;;;;;;;;;;6.14;100.00;96224.75;5065640;28;20059;-76
2023/12/26 00:44:29;;;;;;;;;;;;;;;6.12;100.00;96216.31;5065894;28;19962;-76
2023/12/26 00:46:54;;;;;;;;;;;;;;;6.10;100.00;96224.31;5065947;28;19947;-77
2023/12/26 00:49:20;;;;;;;;;;;;;;;6.06;100.00;96215.28;5065265;28;19958;-76
2023/12/26 00:51:46;;;;;;;;;;;;;;;6.03;100.00;96213.09;5065852;28;19966;-77
2023/12/26 00:54:12;;;;;;;;;;;;;;;6.01;100.00;96224.69;5065996;28;20299;-76
2023/12/26 00:56:38;;;;;;;;;;;;;;;5.99;100.00;96229.28;5065951;28;20017;-82
2023/12/26 00:59:04;;;;;;;;;;;;;;;5.99;100.00;96231.91;5065369;28;19948;-79
2023/12/26 01:01:29;;;;;;;;;;;;;;;5.97;100.00;96226.88;5065392;28;19984;-78
2023/12/26 01:03:55;;;;;;;;;;;;;;;5.98;100.00;96227.69;5065946;28;19999;-78
2023/12/26 01:06:21;;;;;;;;;;;;;;;5.95;100.00;96222.88;5065892;28;19975;-78
2023/12/26 01:08:47;;;;;;;;;;;;;;;5.94;100.00;96229.03;5065298;28;20002;-78
2023/12/26 01:11:13;;;;;;;;;;;;;;;5.95;100.00;96230.69;5064956;28;19988;-77
2023/12/26 01:13:39;;;;;;;;;;;;;;;5.96;100.00;96234.88;5065483;28;20179;-77
2023/12/26 01:16:05;;;;;;;;;;;;;;;5.96;100.00;96234.88;5065399;28;19957;-68
2023/12/26 01:18:31;;;;;;;;;;;;;;;5.98;100.00;96238.88;5065396;28;19960;-72
2023/12/26 01:20:57;;;;;;;;;;;;;;;6.00;100.00;96246.50;5065290;28;19959;-72
2023/12/26 01:23:23;;;;;;;;;;;;;;;5.99;100.00;96240.50;5065457;28;19956;-73
2023/12/26 01:25:49;;;;;;;;;;;;;;;6.01;100.00;96259.34;5065337;28;19990;-72
2023/12/26 01:28:15;;;;;;;;;;;;;;;6.01;100.00;96255.94;5065264;28;20103;-73
2023/12/26 01:30:41;;;;;;;;;;;;;;;6.01;100.00;96258.53;5064980;28;19944;-74
2023/12/26 01:33:08;;;;;;;;;;;;;;;6.03;100.00;96256.53;5064727;28;20156;-68
2023/12/26 01:35:33;;;;;;;;;;;;;;;6.04;100.00;96255.53;5064771;28;19959;-71
2023/12/26 01:37:59;;;;;;;;;;;;;;;6.08;100.00;96259.34;5065174;28;19989;-83
2023/12/26 01:40:25;;;;;;;;;;;;;;;6.11;100.00;96261.59;5064524;28;20043;-82
2023/12/26 01:42:51;;;;;;;;;;;;;;;6.11;100.00;96261.59;5064773;28;19952;-82
2023/12/26 01:45:17;;;;;;;;;;;;;;;6.13;100.00;96262.16;5064779;28;19968;-83
2023/12/26 01:47:45;;;;;;;;;;;;;;;6.14;100.00;96266.41;5065575;28;19953;-82
2023/12/26 01:50:12;;;;;;;;;;;;;;;6.15;100.00;96273.19;5064386;28;20134;-83
2023/12/26 01:52:39;;;;;;;;;;;;;;;6.15;100.00;96278.41;5064845;28;19969;-82
2023/12/26 01:55:09;;;;;;;;;;;;;;;6.13;100.00;96272.59;5064917;28;20108;-72
2023/12/26 01:57:35;;;;;;;;;;;;;;;6.12;100.00;96276.19;5064278;28;20117;-72
2023/12/26 02:00:02;;;;;;;;;;;;;;;6.13;100.00;96280.41;5064753;28;19956;-73
2023/12/26 02:02:28;;;;;;;;;;;;;;;6.14;100.00;96284.63;5064362;28;20145;-73
2023/12/26 02:04:55;;;;;;;;;;;;;;;6.14;100.00;96283.81;5064655;28;19956;-73
2023/12/26 02:07:21;;;;;;;;;;;;;;;6.15;100.00;96291.41;5064411;28;19954;-73
2023/12/26 02:09:46;;;;;;;;;;;;;;;6.16;100.00;96276.63;5064311;28;20134;-72
2023/12/26 02:12:12;;;;;;;;;;;;;;;6.16;100.00;96290.44;5046714;28;19966;-68
2023/12/26 02:14:38;;;;;;;;;;;;;;;6.17;100.00;96286.03;5063448;28;19961;-71
2023/12/26 02:17:08;;;;;;;;;;;;;;;6.18;100.00;96287.66;5064345;28;20021;-71
2023/12/26 02:19:40;;;;;;;;;;;;;;;6.19;100.00;96287.44;5063976;28;19961;-71
2023/12/26 02:22:05;;;;;;;;;;;;;;;6.21;100.00;96289.84;5064471;28;19958;-71
2023/12/26 02:24:31;;;;;;;;;;;;;;;6.19;100.00;96290.03;5064389;28;19999;-71
2023/12/26 02:26:57;;;;;;;;;;;;;;;6.20;100.00;96283.06;5064620;28;19960;-71
2023/12/26 02:29:24;;;;;;;;;;;;;;;6.21;100.00;96280.22;5063950;28;19955;-71
2023/12/26 02:31:51;;;;;;;;;;;;;;;6.22;100.00;96279.25;5064291;28;20160;-71
2023/12/26 02:34:17;;;;;;;;;;;;;;;6.23;100.00;96280.84;5064034;28;19959;-71
2023/12/26 02:36:42;;;;;;;;;;;;;;;6.25;100.00;96284.06;5064391;28;20137;-71
2023/12/26 02:39:09;;;;;;;;;;;;;;;6.26;100.00;96285.69;5064011;28;20295;-71
2023/12/26 02:41:36;;;;;;;;;;;;;;;6.26;100.00;96277.88;5064225;28;19965;-71
2023/12/26 02:44:01;;;;;;;;;;;;;;;6.27;100.00;96276.84;5065605;28;19960;-71
2023/12/26 02:46:27;;;;;;;;;;;;;;;6.28;100.00;96277.69;5068304;28;19955;-73
2023/12/26 02:48:53;;;;;;;;;;;;;;;6.27;100.00;96281.25;5067766;28;20005;-83
2023/12/26 02:51:19;;;;;;;;;;;;;;;6.24;100.00;96279.88;5068284;28;20001;-76
2023/12/26 02:53:45;;;;;;;;;;;;;;;6.25;100.00;96272.84;5068195;28;19961;-76
2023/12/26 02:56:11;;;;;;;;;;;;;;;6.26;100.00;96282.28;5068434;28;20208;-76
2023/12/26 02:58:36;;;;;;;;;;;;;;;6.27;100.00;96283.88;5068513;28;20140;-77
2023/12/26 03:01:02;;;;;;;;;;;;;;;6.28;100.00;96290.69;5068065;28;19996;-77
2023/12/26 03:03:28;;;;;;;;;;;;;;;6.27;100.00;96281.25;5067832;28;19961;-76
2023/12/26 03:05:54;;;;;;;;;;;;;;;6.28;100.00;96277.69;5067892;28;19962;-83
2023/12/26 03:08:20;;;;;;;;;;;;;;;6.29;100.00;96284.47;5067916;28;19960;-78
2023/12/26 03:10:46;;;;;;;;;;;;;;;6.28;100.00;96283.69;5067679;28;19954;-78
2023/12/26 03:13:12;;;;;;;;;;;;;;;6.29;100.00;96290.47;5067676;28;19965;-78
2023/12/26 03:15:38;;;;;;;;;;;;;;;6.30;100.00;96284.28;5067895;28;20027;-78
2023/12/26 03:18:04;;;;;;;;;;;;;;;6.30;100.00;96291.31;5067675;28;20019;-77
2023/12/26 03:20:30;;;;;;;;;;;;;;;6.29;100.00;96282.66;5067747;28;19966;-77
2023/12/26 03:22:56;;;;;;;;;;;;;;;6.29;100.00;96287.88;5067631;28;19955;-68
2023/12/26 03:25:22;;;;;;;;;;;;;;;6.28;100.00;96282.88;5067103;28;19993;-72
2023/12/26 03:27:48;;;;;;;;;;;;;;;6.28;100.00;96299.31;5067258;28;19958;-73
2023/12/26 03:30:14;;;;;;;;;;;;;;;6.28;100.00;96295.91;5067135;28;19955;-73
2023/12/26 03:32:39;;;;;;;;;;;;;;;6.28;100.00;96301.91;5067589;28;19970;-73
2023/12/26 03:35:06;;;;;;;;;;;;;;;6.29;100.00;96300.91;5067302;28;19955;-72
2023/12/26 03:37:32;;;;;;;;;;;;;;;6.32;100.00;96293.69;5067147;28;19960;-73
2023/12/26 03:39:58;;;;;;;;;;;;;;;6.30;100.00;96297.31;5067127;28;19958;-72
2023/12/26 03:42:24;;;;;;;;;;;;;;;6.33;100.00;96300.53;5067244;28;19953;-68
2023/12/26 03:44:49;;;;;;;;;;;;;;;6.33;100.00;96295.31;5067133;28;19953;-71
2023/12/26 03:47:15;;;;;;;;;;;;;;;6.33;100.00;96298.72;5067127;28;19959;-71
2023/12/26 03:49:41;;;;;;;;;;;;;;;6.33;100.00;96295.31;5067405;28;19953;-70
2023/12/26 03:52:07;;;;;;;;;;;;;;;6.34;100.00;96299.50;5067100;28;19995;-71
2023/12/26 03:54:33;;;;;;;;;;;;;;;6.34;100.00;96296.91;5066739;28;19948;-71
2023/12/26 03:57:00;;;;;;;;;;;;;;;6.34;100.00;96297.75;5067019;28;19977;-71
2023/12/26 03:59:26;;;;;;;;;;;;;;;6.34;100.00;96300.34;5067231;28;20220;-70
2023/12/26 04:01:52;;;;;;;;;;;;;;;6.34;100.00;96307.34;5066587;28;19984;-71
2023/12/26 04:04:18;;;;;;;;;;;;;;;6.36;100.00;96305.34;5066575;28;20291;-70
2023/12/26 04:06:44;;;;;;;;;;;;;;;6.36;100.00;96302.72;5066544;28;20262;-71
2023/12/26 04:09:10;;;;;;;;;;;;;;;6.38;100.00;96287.72;5066512;28;19999;-71
2023/12/26 04:11:36;;;;;;;;;;;;;;;6.38;100.00;96275.50;5066279;28;19955;-71
2023/12/26 04:14:02;;;;;;;;;;;;;;;6.40;100.00;96291.72;5066584;28;19965;-71
2023/12/26 04:16:28;;;;;;;;;;;;;;;6.41;100.00;96288.13;5066596;28;19999;-71
2023/12/26 04:18:54;;;;;;;;;;;;;;;6.42;100.00;96292.34;5066592;28;19957;-71
2023/12/26 04:21:19;;;;;;;;;;;;;;;6.45;100.00;96293.78;5066629;28;20270;-68
2023/12/26 04:23:45;;;;;;;;;;;;;;;6.45;100.00;96297.16;5065897;28;19954;-69
2023/12/26 04:26:11;;;;;;;;;;;;;;;6.45;100.00;96294.56;5066457;28;19945;-69
2023/12/26 04:28:37;;;;;;;;;;;;;;;6.48;100.00;96295.97;5066032;28;19969;-68
2023/12/26 04:31:04;;;;;;;;;;;;;;;6.49;100.00;96297.59;5066417;28;19960;-68
2023/12/26 04:33:30;;;;;;;;;;;;;;;6.50;100.00;96297.38;5065893;28;19988;-69
2023/12/26 04:35:56;;;;;;;;;;;;;;;6.53;100.00;96301.41;5066015;28;19958;-68
2023/12/26 04:38:22;;;;;;;;;;;;;;;6.53;100.00;96304.03;5066032;28;19960;-72
2023/12/26 04:40:47;;;;;;;;;;;;;;;6.55;100.00;96301.19;5065998;28;19951;-68
2023/12/26 04:43:15;;;;;;;;;;;;;;;6.54;100.00;96304.81;5065997;28;19957;-68
2023/12/26 04:45:41;;;;;;;;;;;;;;;6.53;100.00;96301.41;5065425;28;19964;-68
2023/12/26 04:48:08;;;;;;;;;;;;;;;6.53;100.00;96301.41;5066137;28;19958;-69
2023/12/26 04:50:34;;;;;;;;;;;;;;;6.55;100.00;96304.63;5066015;28;19959;-68
2023/12/26 04:53:06;;;;;;;;;;;;;;;6.55;100.00;96304.63;5065865;28;19965;-69
2023/12/26 04:55:32;;;;;;;;;;;;;;;6.56;100.00;96305.41;5065987;28;19971;-71
2023/12/26 04:57:58;;;;;;;;;;;;;;;6.57;100.00;96301.81;5047764;28;19952;-68
2023/12/26 05:00:24;;;;;;;;;;;;;;;6.56;100.00;96311.44;5065853;28;20138;-68
2023/12/26 05:02:50;;;;;;;;;;;;;;;6.57;100.00;96327.84;5065171;28;20042;-68
2023/12/26 05:05:16;;;;;;;;;;;;;;;6.58;100.00;96326.88;5065746;28;19960;-68
2023/12/26 05:07:42;;;;;;;;;;;;;;;6.59;100.00;96331.88;5064911;28;20114;-68
2023/12/26 05:10:08;;;;;;;;;;;;;;;6.60;100.00;96327.47;5065418;28;19983;-68
2023/12/26 05:12:34;;;;;;;;;;;;;;;6.59;100.00;96321.44;5065502;28;19956;-68
2023/12/26 05:15:00;;;;;;;;;;;;;;;6.59;100.00;96326.66;5065631;28;19962;-73
2023/12/26 05:17:26;;;;;;;;;;;;;;;6.61;100.00;96323.88;5065532;28;19961;-71
2023/12/26 05:19:52;;;;;;;;;;;;;;;6.60;100.00;96328.28;5065470;28;20014;-71
2023/12/26 05:22:18;;;;;;;;;;;;;;;6.60;100.00;96330.88;5065419;28;19962;-71
2023/12/26 05:24:43;;;;;;;;;;;;;;;6.61;100.00;96335.09;5065245;28;20016;-71
2023/12/26 05:27:10;;;;;;;;;;;;;;;6.62;100.00;96343.72;5065535;28;19954;-71
2023/12/26 05:29:36;;;;;;;;;;;;;;;6.61;100.00;96339.50;5065290;28;19959;-71
2023/12/26 05:32:02;;;;;;;;;;;;;;;6.61;100.00;96350.72;5065087;28;19978;-72
2023/12/26 05:34:28;;;;;;;;;;;;;;;6.62;100.00;96354.16;5065179;28;19956;-72
2023/12/26 05:36:54;;;;;;;;;;;;;;;6.63;100.00;96337.50;5065293;28;19963;-73
2023/12/26 05:39:20;;;;;;;;;;;;;;;6.62;100.00;96347.13;5064930;28;20001;-73
2023/12/26 05:41:46;;;;;;;;;;;;;;;6.63;100.00;96351.31;5064862;28;19959;-73
2023/12/26 05:44:12;;;;;;;;;;;;;;;6.65;100.00;96351.13;5064889;28;19949;-73
2023/12/26 05:46:38;;;;;;;;;;;;;;;6.64;100.00;96354.75;5064885;28;19967;-73
2023/12/26 05:49:03;;;;;;;;;;;;;;;6.63;100.00;96351.31;5064950;28;19958;-73
2023/12/26 05:51:29;;;;;;;;;;;;;;;6.64;100.00;96354.75;5064869;28;19972;-82
2023/12/26 05:53:56;;;;;;;;;;;;;;;6.63;100.00;96361.75;5064289;28;19999;-73
2023/12/26 05:56:22;;;;;;;;;;;;;;;6.62;100.00;96352.34;5065049;28;19972;-73
2023/12/26 05:58:48;;;;;;;;;;;;;;;6.61;100.00;96365.56;5064997;28;20030;-73
2023/12/26 06:01:15;;;;;;;;;;;;;;;6.59;100.00;96355.31;5064160;28;19960;-73
2023/12/26 06:03:40;;;;;;;;;;;;;;;6.59;100.00;96362.34;5064684;28;20237;-73
2023/12/26 06:06:11;;;;;;;;;;;;;;;6.57;100.00;96362.53;5064340;28;19964;-72
2023/12/26 06:08:38;;;;;;;;;;;;;;;6.58;100.00;96368.56;5064353;28;19960;-71
2023/12/26 06:11:04;;;;;;;;;;;;;;;6.58;100.00;96373.78;5064707;28;19958;-71
2023/12/26 06:13:30;;;;;;;;;;;;;;;6.57;100.00;96377.34;5064355;28;19986;-69
2023/12/26 06:15:56;;;;;;;;;;;;;;;6.56;100.00;96375.75;5064424;28;20296;-68
2023/12/26 06:18:22;;;;;;;;;;;;;;;6.56;100.00;96378.38;5064459;28;19962;-68
2023/12/26 06:20:48;;;;;;;;;;;;;;;6.56;100.00;96383.59;5064387;28;19959;-69
2023/12/26 06:23:14;;;;;;;;;;;;;;;6.56;100.00;96384.38;5063925;28;19991;-68
2023/12/26 06:25:40;;;;;;;;;;;;;;;6.57;100.00;96393.00;5063980;28;19961;-68
2023/12/26 06:28:06;;;;;;;;;;;;;;;6.58;100.00;96394.63;5064395;28;20021;-68
2023/12/26 06:30:32;;;;;;;;;;;;;;;6.57;100.00;96398.19;5064177;28;19994;-69
2023/12/26 06:32:57;;;;;;;;;;;;;;;6.57;100.00;96393.78;5063902;28;19972;-68
2023/12/26 06:35:24;;;;;;;;;;;;;;;6.57;100.00;96395.59;5064384;28;20005;-68
2023/12/26 06:37:49;;;;;;;;;;;;;;;6.56;100.00;96399.22;5064044;28;20119;-68
2023/12/26 06:40:15;;;;;;;;;;;;;;;6.56;100.00;96400.00;5063724;28;19956;-69
2023/12/26 06:42:41;;;;;;;;;;;;;;;6.53;100.00;96400.41;5064347;28;20234;-68
2023/12/26 06:45:07;;;;;;;;;;;;;;;6.49;100.00;96399.97;5064107;28;19963;-68
2023/12/26 06:47:33;;;;;;;;;;;;;;;6.46;100.00;96410.78;5064317;28;19984;-76
2023/12/26 06:49:59;;;;;;;;;;;;;;;6.45;100.00;96417.00;5064411;28;20018;-83
2023/12/26 06:52:26;;;;;;;;;;;;;;;6.43;100.00;96416.38;5064270;28;19967;-83
2023/12/26 06:54:51;;;;;;;;;;;;;;;6.42;100.00;96434.81;5063898;28;19983;-83
2023/12/26 06:57:17;;;;;;;;;;;;;;;6.40;100.00;96434.97;5064125;28;20303;-83
2023/12/26 06:59:45;;;;;;;;;;;;;;;6.36;100.00;96438.16;5063998;28;19968;-83
2023/12/26 07:02:11;;;;;;;;;;;;;;;6.28;100.00;96449.56;5064177;28;19956;-83
2023/12/26 07:04:36;;;;;;;;;;;;;;;6.27;100.00;96440.91;5063814;28;19958;-84
2023/12/26 07:07:02;;;;;;;;;;;;;;;6.23;100.00;96447.50;5062472;28;19955;-71
2023/12/26 07:09:30;;;;;;;;;;;;;;;6.24;100.00;96458.75;5062693;28;20134;-71
2023/12/26 07:11:56;;;;;;;;;;;;;;;6.26;100.00;96464.56;5063834;28;19961;-70
2023/12/26 07:14:22;;;;;;;;;;;;;;;6.22;100.00;96458.94;5063900;28;19967;-71
2023/12/26 07:16:48;;;;;;;;;;;;;;;6.22;100.00;96452.91;5063964;28;20024;-72
2023/12/26 07:19:14;;;;;;;;;;;;;;;6.22;100.00;96460.72;5063829;28;19956;-71
2023/12/26 07:21:39;;;;;;;;;;;;;;;6.22;100.00;96452.91;5063367;28;20251;-71
2023/12/26 07:24:05;;;;;;;;;;;;;;;6.20;100.00;96452.31;5063366;28;20251;-82
2023/12/26 07:26:31;;;;;;;;;;;;;;;6.19;100.00;96455.88;5063438;28;20030;-68
2023/12/26 07:28:57;;;;;;;;;;;;;;;6.18;100.00;96455.09;5063836;28;20117;-68
2023/12/26 07:31:23;;;;;;;;;;;;;;;6.17;100.00;96468.28;5066977;28;20019;-68
2023/12/26 07:33:51;;;;;;;;;;;;;;;6.15;100.00;96472.88;5067182;28;19967;-68
2023/12/26 07:36:17;;;;;;;;;;;;;;;6.13;100.00;96480.88;5067251;28;19958;-68
2023/12/26 07:38:43;;;;;;;;;;;;;;;6.10;100.00;96476.06;5067424;28;19962;-69
2023/12/26 07:41:09;;;;;;;;;;;;;;;6.11;100.00;96482.88;5067188;28;19958;-72
2023/12/26 07:43:35;;;;;;;;;;;;;;;6.13;100.00;96478.28;5049230;28;19962;-71
2023/12/26 07:46:01;;;;;;;;;;;;;;;6.16;100.00;96484.91;5067829;28;19963;-71
2023/12/26 07:48:27;;;;;;;;;;;;;;;6.17;100.00;96492.53;5067259;28;19959;-71
2023/12/26 07:50:53;;;;;;;;;;;;;;;6.12;100.00;96500.09;5067145;28;19959;-71
2023/12/26 07:53:19;;;;;;;;;;;;;;;6.06;100.00;96499.06;5066642;28;19991;-71
2023/12/26 07:55:45;;;;;;;;;;;;;;;6.07;100.00;96502.47;5067098;28;19954;-71
2023/12/26 07:58:12;;;;;;;;;;;;;;;6.07;100.00;96508.47;5067304;28;20245;-71
2023/12/26 08:00:38;;;;;;;;;;;;;;;6.04;100.00;96503.63;5066709;28;19956;-71
2023/12/26 08:03:03;;;;;;;;;;;;;;;6.04;100.00;96498.44;5066661;28;19960;-68
2023/12/26 08:05:29;;;;;;;;;;;;;;;6.03;100.00;96506.44;5066724;28;19961;-68
2023/12/26 08:07:55;;;;;;;;;;;;;;;6.04;100.00;96497.63;5066243;28;20295;-68
2023/12/26 08:10:24;;;;;;;;;;;;;;;6.04;100.00;96500.25;5066735;28;19958;-67
2023/12/26 08:12:50;;;;;;;;;;;;;;;6.07;100.00;96498.06;5065580;28;20146;-68
2023/12/26 08:15:16;;;;;;;;;;;;;;;6.12;100.00;96502.72;5066702;28;19969;-68
2023/12/26 08:17:42;;;;;;;;;;;;;;;6.15;100.00;96504.13;5066212;28;19951;-69
2023/12/26 08:20:08;;;;;;;;;;;;;;;6.18;100.00;96506.38;5066598;28;20003;-78
2023/12/26 08:22:34;;;;;;;;;;;;;;;6.20;100.00;96505.19;5066317;28;19948;-73
2023/12/26 08:25:00;;;;;;;;;;;;;;;6.19;100.00;96507.97;5066785;28;19964;-73
2023/12/26 08:27:26;;;;;;;;;;;;;;;6.20;100.00;96514.81;5066147;28;19954;-73
2023/12/26 08:29:52;;;;;;;;;;;;;;;6.20;100.00;96514.81;5066151;28;19952;-73
2023/12/26 08:32:21;;;;;;;;;;;;;;;6.23;100.00;96520.41;5066482;28;20245;-72
2023/12/26 08:34:47;;;;;;;;;;;;;;;6.23;100.00;96519.63;5066125;28;19951;-73
2023/12/26 08:37:13;;;;;;;;;;;;;;;6.26;100.00;96529.69;5066123;28;20016;-73
2023/12/26 08:39:39;;;;;;;;;;;;;;;6.27;100.00;96533.88;5066175;28;19952;-68
2023/12/26 08:42:05;;;;;;;;;;;;;;;6.26;100.00;96532.28;5065168;28;20004;-68
2023/12/26 08:44:31;;;;;;;;;;;;;;;6.26;100.00;96540.88;5066273;28;19965;-69
2023/12/26 08:47:01;;;;;;;;;;;;;;;6.30;100.00;96546.53;5065600;28;20025;-69
2023/12/26 08:49:27;;;;;;;;;;;;;;;6.33;100.00;96555.78;5065581;28;20249;-69
2023/12/26 08:51:53;;;;;;;;;;;;;;;6.36;100.00;96548.38;5065609;28;19955;-68
2023/12/26 08:54:20;;;;;;;;;;;;;;;6.38;100.00;96554.19;5066137;28;20242;-78
2023/12/26 08:56:46;;;;;;;;;;;;;;;6.41;100.00;96560.84;5065644;28;19961;-83
2023/12/26 08:59:12;;;;;;;;;;;;;;;6.46;100.00;96563.69;5066055;28;19954;-71
2023/12/26 09:01:38;;;;;;;;;;;;;;;6.49;100.00;96563.31;5065539;28;19955;-71
2023/12/26 09:04:04;;;;;;;;;;;;;;;6.56;100.00;96568.56;5065517;28;19984;-71
2023/12/26 09:06:30;;;;;;;;;;;;;;;6.61;100.00;96571.41;5065538;28;19967;-70
2023/12/26 09:08:55;;;;;;;;;;;;;;;6.65;100.00;96583.06;5065505;28;19999;-71
2023/12/26 09:11:21;;;;;;;;;;;;;;;6.70;100.00;96578.91;5065582;28;19957;-71
2023/12/26 09:13:47;;;;;;;;;;;;;;;6.75;100.00;96583.53;5065526;28;19967;-71
2023/12/26 09:16:13;;;;;;;;;;;;;;;6.80;100.00;96578.53;5065505;28;20140;-69
2023/12/26 09:18:39;;;;;;;;;;;;;;;6.82;100.00;96586.19;5065454;28;19965;-69
2023/12/26 09:21:05;;;;;;;;;;;;;;;6.86;100.00;96592.63;5065037;28;19985;-68
2023/12/26 09:23:31;;;;;;;;;;;;;;;6.90;100.00;96599.88;5064993;28;19957;-70
2023/12/26 09:25:57;;;;;;;;;;;;;;;6.94;100.00;96576.03;5064233;28;19960;-68
2023/12/26 09:28:23;;;;;;;;;;;;;;;6.96;100.00;96581.88;5064984;28;19951;-69
2023/12/26 09:30:49;;;;;;;;;;;;;;;6.98;100.00;96582.47;5065390;28;19957;-69
2023/12/26 09:33:15;;;;;;;;;;;;;;;7.00;100.00;96583.09;5065361;28;20010;-71
2023/12/26 09:35:42;;;;;;;;;;;;;;;7.00;100.00;96573.47;5064993;28;19962;-78
2023/12/26 09:38:08;;;;;;;;;;;;;;;7.04;100.00;96584.34;5065544;28;19980;-78
2023/12/26 09:40:34;;;;;;;;;;;;;;;7.08;100.00;96588.97;5065202;28;20288;-79
2023/12/26 09:43:02;;;;;;;;;;;;;;;7.10;100.00;96584.38;5065019;28;19955;-78
2023/12/26 09:45:28;;;;;;;;;;;;;;;7.15;100.00;96601.25;5064581;28;19961;-78
2023/12/26 09:47:54;;;;;;;;;;;;;;;7.19;100.00;96598.03;5064949;28;20044;-78
2023/12/26 09:50:20;;;;;;;;;;;;;;;7.23;100.00;96598.47;5064763;28;19940;-77
2023/12/26 09:52:50;;;;;;;;;;;;;;;7.26;100.00;96600.69;5063994;28;20257;-69
2023/12/26 09:55:16;;;;;;;;;;;;;;;7.28;100.00;96596.88;5064536;28;19957;-69
2023/12/26 09:57:42;;;;;;;;;;;;;;;7.30;100.00;96602.72;5064496;28;19962;-68
2023/12/26 10:00:08;;;;;;;;;;;;;;;7.30;100.00;96609.75;5064597;28;19951;-69
2023/12/26 10:02:34;;;;;;;;;;;;;;;7.33;100.00;96619.81;5064493;28;19969;-69
2023/12/26 10:05:00;;;;;;;;;;;;;;;7.33;100.00;96619.81;5064491;28;19961;-69
2023/12/26 10:07:26;;;;;;;;;;;;;;;7.37;100.00;96614.97;5064643;28;20086;-69
2023/12/26 10:09:53;;;;;;;;;;;;;;;7.38;100.00;96612.19;5064552;28;19951;-74
2023/12/26 10:12:19;;;;;;;;;;;;;;;7.41;100.00;96616.22;5064569;28;20161;-77
2023/12/26 10:14:45;;;;;;;;;;;;;;;7.43;100.00;96611.59;5064535;28;20001;-77
2023/12/26 10:17:12;;;;;;;;;;;;;;;7.45;100.00;96597.38;5064471;28;19996;-76
2023/12/26 10:19:38;;;;;;;;;;;;;;;7.48;100.00;96590.97;5064031;28;19955;-77
2023/12/26 10:22:04;;;;;;;;;;;;;;;7.48;100.00;96588.38;5063926;28;19976;-76
2023/12/26 10:24:30;;;;;;;;;;;;;;;7.51;100.00;96591.38;5064605;28;19969;-76
2023/12/26 10:26:56;;;;;;;;;;;;;;;7.54;100.00;96590.19;5064441;28;19966;-73
2023/12/26 10:29:22;;;;;;;;;;;;;;;7.58;100.00;96586.19;5064188;28;19954;-82
2023/12/26 10:31:47;;;;;;;;;;;;;;;7.60;100.00;96593.81;5064485;28;19958;-71
2023/12/26 10:34:17;;;;;;;;;;;;;;;7.61;100.00;96592.81;5064017;28;20175;-71
2023/12/26 10:36:46;;;;;;;;;;;;;;;7.63;100.00;96591.63;5064177;28;19958;-71
2023/12/26 10:39:12;;;;;;;;;;;;;;;7.66;100.00;96601.66;5064140;28;19954;-71
2023/12/26 10:41:43;;;;;;;;;;;;;;;7.68;100.00;96597.06;5064272;28;20132;-71
2023/12/26 10:44:09;;;;;;;;;;;;;;;7.71;100.00;96608.94;5064162;28;19964;-71
2023/12/26 10:46:35;;;;;;;;;;;;;;;7.78;100.00;96611.56;5064246;28;19970;-73
2023/12/26 10:49:05;;;;;;;;;;;;;;;7.77;100.00;96605.53;5064200;28;20247;-77
2023/12/26 10:51:32;;;;;;;;;;;;;;;7.78;100.00;96607.13;5063906;28;20151;-76
2023/12/26 10:54:06;;;;;;;;;;;;;;;7.77;100.00;96604.72;5063729;28;19972;-77
2023/12/26 10:56:32;;;;;;;;;;;;;;;7.77;100.00;96596.88;5063898;28;19954;-77
2023/12/26 10:58:59;;;;;;;;;;;;;;;7.77;100.00;96589.88;5063893;28;19958;-77
2023/12/26 13:52:28;;;;;;;;;;;;;;;7.84;100.00;96676.06;5064796;28;19954;-78
2023/12/26 13:54:54;;;;;;;;;;;;;;;7.83;100.00;96682.25;5064709;28;19976;-79
2023/12/26 13:57:19;;;;;;;;;;;;;;;7.82;100.00;96683.28;5064974;28;20017;-78
2023/12/26 13:59:45;;;;;;;;;;;;;;;7.81;100.00;96676.44;5064830;28;20143;-78
2023/12/26 14:02:11;;;;;;;;;;;;;;;7.81;100.00;96672.03;5064756;28;20020;-77
2023/12/26 14:04:37;;;;;;;;;;;;;;;7.83;100.00;96680.47;5064934;28;19947;-79
2023/12/26 14:07:03;;;;;;;;;;;;;;;7.85;100.00;96694.16;5064247;28;19959;-77
2023/12/26 14:09:29;;;;;;;;;;;;;;;7.86;100.00;96695.75;5064283;28;19958;-69
2023/12/26 14:11:54;;;;;;;;;;;;;;;7.89;100.00;96703.16;5064588;28;20261;-77
2023/12/26 14:14:20;;;;;;;;;;;;;;;7.90;100.00;96712.63;5064175;28;19966;-77
2023/12/26 14:16:46;;;;;;;;;;;;;;;7.91;100.00;96710.81;5064623;28;19960;-76
2023/12/26 14:19:13;;;;;;;;;;;;;;;7.91;100.00;96729.09;5064237;28;20018;-76
2023/12/26 14:21:39;;;;;;;;;;;;;;;7.90;100.00;96738.75;5064554;28;20023;-77
2023/12/26 14:24:05;;;;;;;;;;;;;;;7.91;100.00;96750.00;5064458;28;19955;-77
2023/12/26 14:26:31;;;;;;;;;;;;;;;7.89;100.00;96742.34;5064388;28;20107;-71
2023/12/26 14:28:56;;;;;;;;;;;;;;;7.88;100.00;96753.81;5064520;28;20122;-73
2023/12/26 14:31:24;;;;;;;;;;;;;;;7.89;100.00;96754.59;5064345;28;19967;-73
2023/12/26 14:33:49;;;;;;;;;;;;;;;7.90;100.00;96740.56;5064212;28;19961;-73
2023/12/26 14:36:15;;;;;;;;;;;;;;;7.89;100.00;96728.47;5064493;28;19956;-73
2023/12/26 14:38:41;;;;;;;;;;;;;;;7.90;100.00;96709.22;5063365;28;19951;-73
2023/12/26 14:41:07;;;;;;;;;;;;;;;7.90;100.00;96728.31;5063622;28;19962;-73
2023/12/26 14:43:33;;;;;;;;;;;;;;;7.89;100.00;96720.66;5064053;28;20002;-73
2023/12/26 14:45:59;;;;;;;;;;;;;;;7.90;100.00;96714.44;5063921;28;19955;-78
2023/12/26 14:48:24;;;;;;;;;;;;;;;7.89;100.00;96710.22;5064005;28;19959;-71
2023/12/26 14:50:50;;;;;;;;;;;;;;;7.85;100.00;96704.59;5064191;28;19956;-71
2023/12/26 14:53:16;;;;;;;;;;;;;;;7.83;100.00;96703.16;5064058;28;20240;-71
2023/12/26 14:55:42;;;;;;;;;;;;;;;7.82;100.00;96704.97;5064047;28;20172;-71
2023/12/26 14:58:08;;;;;;;;;;;;;;;7.80;100.00;96700.94;5064177;28;19959;-71
2023/12/26 15:00:34;;;;;;;;;;;;;;;7.78;100.00;96714.19;5064152;28;19963;-71
2023/12/26 15:03:00;;;;;;;;;;;;;;;7.76;100.00;96715.38;5063980;28;20183;-78
2023/12/26 15:05:26;;;;;;;;;;;;;;;7.76;100.00;96712.75;5063985;28;20282;-73
2023/12/26 15:07:52;;;;;;;;;;;;;;;7.75;100.00;96738.06;5063504;28;19965;-69
2023/12/26 15:10:17;;;;;;;;;;;;;;;7.75;100.00;96755.50;5063996;28;20234;-69
2023/12/26 15:12:43;;;;;;;;;;;;;;;7.71;100.00;96768.97;5063471;28;19976;-69
2023/12/26 15:15:09;;;;;;;;;;;;;;;7.70;100.00;96763.94;5062347;28;20256;-69
2023/12/26 15:17:35;;;;;;;;;;;;;;;7.71;100.00;96753.31;5063701;28;19962;-68
2023/12/26 15:20:01;;;;;;;;;;;;;;;7.73;100.00;96760.94;5063680;28;20167;-69
2023/12/26 15:22:27;;;;;;;;;;;;;;;7.70;100.00;96767.34;5063794;28;19960;-83
2023/12/26 15:24:53;;;;;;;;;;;;;;;7.70;100.00;96774.38;5063767;28;19956;-76
2023/12/26 15:27:20;;;;;;;;;;;;;;;7.67;100.00;96774.78;5063811;28;19993;-77
2023/12/26 15:29:47;;;;;;;;;;;;;;;7.67;100.00;96782.59;5062957;28;20138;-77
2023/12/26 15:32:13;;;;;;;;;;;;;;;7.63;100.00;96790.00;5063741;28;19967;-76